sensor_id;sensor_type;location;lat;lon;timestamp;pressure;altitude;pressure_sealevel;temperature;humidity
37420;BME280;47344;52.374;4.816;2023-01-31T00:03:04;102384.0;;;5.83;98.92
37420;BME280;47344;52.374;4.816;2023-01-31T00:04:40;102381.0;;;5.78;99.06
37420;BME280;47344;52.374;4.816;2023-01-31T00:06:17;102375.0;;;5.81;98.93
37420;BME280;47344;52.374;4.816;2023-01-31T00:07:56;102367.0;;;5.9;99.16
37420;BME280;47344;52.374;4.816;2023-01-31T00:11:09;102356.0;;;5.77;100.0
37420;BME280;47344;52.374;4.816;2023-01-31T00:12:45;102355.0;;;5.77;100.0
37420;BME280;47344;52.374;4.816;2023-01-31T00:14:22;102351.0;;;5.85;100.0
37420;BME280;47344;52.374;4.816;2023-01-31T00:17:34;102347.0;;;5.95;99.95
37420;BME280;47344;52.374;4.816;2023-01-31T00:19:10;102340.0;;;5.91;99.83
37420;BME280;47344;52.374;4.816;2023-01-31T00:20:46;102337.0;;;5.94;100.0
37420;BME280;47344;52.374;4.816;2023-01-31T00:24:00;102335.0;;;5.94;100.0
37420;BME280;47344;52.374;4.816;2023-01-31T00:25:36;102340.0;;;6.0;100.0
37420;BME280;47344;52.374;4.816;2023-01-31T00:27:13;102330.0;;;5.94;100.0
37420;BME280;47344;52.374;4.816;2023-01-31T00:30:28;102331.0;;;5.92;100.0
37420;BME280;47344;52.374;4.816;2023-01-31T00:32:04;102332.0;;;5.9;100.0
37420;BME280;47344;52.374;4.816;2023-01-31T00:33:42;102324.0;;;5.87;100.0
37420;BME280;47344;52.374;4.816;2023-01-31T00:35:19;102322.0;;;5.93;100.0
37420;BME280;47344;52.374;4.816;2023-01-31T00:38:32;102315.0;;;5.97;100.0
37420;BME280;47344;52.374;4.816;2023-01-31T00:40:10;102311.0;;;6.04;100.0
37420;BME280;47344;52.374;4.816;2023-01-31T00:41:47;102308.0;;;6.02;100.0
37420;BME280;47344;52.374;4.816;2023-01-31T00:44:59;102298.0;;;6.0;100.0
37420;BME280;47344;52.374;4.816;2023-01-31T00:46:35;102291.0;;;6.03;100.0
37420;BME280;47344;52.374;4.816;2023-01-31T00:48:11;102288.0;;;5.95;100.0
37420;BME280;47344;52.374;4.816;2023-01-31T00:49:47;102280.0;;;6.0;100.0
37420;BME280;47344;52.374;4.816;2023-01-31T00:53:02;102280.0;;;6.0;100.0
37420;BME280;47344;52.374;4.816;2023-01-31T00:54:39;102273.0;;;6.01;100.0
37420;BME280;47344;52.374;4.816;2023-01-31T00:56:18;102269.0;;;6.07;100.0
37420;BME280;47344;52.374;4.816;2023-01-31T00:59:34;102269.0;;;6.0;100.0
37420;BME280;47344;52.374;4.816;2023-01-31T01:01:12;102270.0;;;5.99;100.0
37420;BME280;47344;52.374;4.816;2023-01-31T01:02:50;102266.0;;;5.99;100.0
37420;BME280;47344;52.374;4.816;2023-01-31T01:04:26;102260.0;;;5.97;100.0
37420;BME280;47344;52.374;4.816;2023-01-31T01:07:41;102258.0;;;5.99;100.0
37420;BME280;47344;52.374;4.816;2023-01-31T01:09:18;102256.0;;;6.03;100.0
37420;BME280;47344;52.374;4.816;2023-01-31T01:10:54;102258.0;;;6.01;100.0
37420;BME280;47344;52.374;4.816;2023-01-31T01:14:07;102252.0;;;6.04;100.0
37420;BME280;47344;52.374;4.816;2023-01-31T01:15:43;102249.0;;;6.04;100.0
37420;BME280;47344;52.374;4.816;2023-01-31T01:17:19;102249.0;;;5.95;100.0
37420;BME280;47344;52.374;4.816;2023-01-31T01:20:33;102251.0;;;5.93;100.0
37420;BME280;47344;52.374;4.816;2023-01-31T01:22:15;102250.0;;;5.96;100.0
37420;BME280;47344;52.374;4.816;2023-01-31T01:23:55;102251.0;;;6.03;100.0
37420;BME280;47344;52.374;4.816;2023-01-31T01:25:41;102251.0;;;5.97;100.0
37420;BME280;47344;52.374;4.816;2023-01-31T01:28:55;102260.0;;;6.07;100.0
37420;BME280;47344;52.374;4.816;2023-01-31T01:30:31;102255.0;;;6.09;100.0
37420;BME280;47344;52.374;4.816;2023-01-31T01:32:07;102262.0;;;6.14;100.0
37420;BME280;47344;52.374;4.816;2023-01-31T01:33:44;102269.0;;;6.23;100.0
37420;BME280;47344;52.374;4.816;2023-01-31T01:36:59;102269.0;;;6.26;100.0
37420;BME280;47344;52.374;4.816;2023-01-31T01:38:36;102274.0;;;6.24;100.0
37420;BME280;47344;52.374;4.816;2023-01-31T01:40:12;102274.0;;;6.31;100.0
37420;BME280;47344;52.374;4.816;2023-01-31T01:43:44;102270.0;;;6.36;100.0
37420;BME280;47344;52.374;4.816;2023-01-31T01:45:20;102276.0;;;6.29;100.0
37420;BME280;47344;52.374;4.816;2023-01-31T01:46:57;102273.0;;;6.36;100.0
37420;BME280;47344;52.374;4.816;2023-01-31T01:48:35;102271.0;;;6.39;100.0
37420;BME280;47344;52.374;4.816;2023-01-31T01:52:05;102277.0;;;6.42;100.0
37420;BME280;47344;52.374;4.816;2023-01-31T01:53:49;102274.0;;;6.46;100.0
37420;BME280;47344;52.374;4.816;2023-01-31T01:55:32;102274.0;;;6.4;100.0
37420;BME280;47344;52.374;4.816;2023-01-31T01:57:10;102266.0;;;6.43;100.0
37420;BME280;47344;52.374;4.816;2023-01-31T01:58:55;102274.0;;;6.44;100.0
37420;BME280;47344;52.374;4.816;2023-01-31T02:02:13;102277.0;;;6.47;100.0
37420;BME280;47344;52.374;4.816;2023-01-31T02:03:50;102280.0;;;6.43;100.0
37420;BME280;47344;52.374;4.816;2023-01-31T02:05:31;102276.0;;;6.51;100.0
37420;BME280;47344;52.374;4.816;2023-01-31T02:07:11;102276.0;;;6.61;100.0
37420;BME280;47344;52.374;4.816;2023-01-31T02:10:29;102280.0;;;6.62;100.0
37420;BME280;47344;52.374;4.816;2023-01-31T02:12:08;102280.0;;;6.57;100.0
37420;BME280;47344;52.374;4.816;2023-01-31T02:13:45;102282.0;;;6.71;100.0
37420;BME280;47344;52.374;4.816;2023-01-31T02:17:00;102275.0;;;6.73;100.0
37420;BME280;47344;52.374;4.816;2023-01-31T02:18:36;102269.0;;;6.85;100.0
37420;BME280;47344;52.374;4.816;2023-01-31T02:20:24;102260.0;;;6.8;100.0
37420;BME280;47344;52.374;4.816;2023-01-31T02:22:16;102258.0;;;6.82;100.0
37420;BME280;47344;52.374;4.816;2023-01-31T02:24:30;102255.0;;;6.82;100.0
37420;BME280;47344;52.374;4.816;2023-01-31T02:28:18;102253.0;;;6.85;100.0
37420;BME280;47344;52.374;4.816;2023-01-31T02:32:45;102250.0;;;6.95;100.0
37420;BME280;47344;52.374;4.816;2023-01-31T02:34:40;102249.0;;;6.88;100.0
37420;BME280;47344;52.374;4.816;2023-01-31T02:38:21;102251.0;;;6.92;100.0
37420;BME280;47344;52.374;4.816;2023-01-31T02:40:10;102250.0;;;6.91;100.0
37420;BME280;47344;52.374;4.816;2023-01-31T02:41:55;102249.0;;;6.99;100.0
37420;BME280;47344;52.374;4.816;2023-01-31T02:45:03;102244.0;;;7.0;100.0
37420;BME280;47344;52.374;4.816;2023-01-31T02:46:51;102246.0;;;7.04;100.0
37420;BME280;47344;52.374;4.816;2023-01-31T02:48:39;102242.0;;;7.02;100.0
37420;BME280;47344;52.374;4.816;2023-01-31T02:50:26;102243.0;;;7.0;100.0
37420;BME280;47344;52.374;4.816;2023-01-31T02:52:23;102246.0;;;7.08;100.0
37420;BME280;47344;52.374;4.816;2023-01-31T02:54:10;102242.0;;;7.08;100.0
37420;BME280;47344;52.374;4.816;2023-01-31T02:56:25;102248.0;;;7.23;100.0
37420;BME280;47344;52.374;4.816;2023-01-31T02:58:07;102248.0;;;7.26;100.0
37420;BME280;47344;52.374;4.816;2023-01-31T02:59:47;102246.0;;;7.24;100.0
37420;BME280;47344;52.374;4.816;2023-01-31T03:03:07;102238.0;;;7.25;100.0
37420;BME280;47344;52.374;4.816;2023-01-31T03:04:48;102244.0;;;7.27;100.0
37420;BME280;47344;52.374;4.816;2023-01-31T03:06:51;102235.0;;;7.33;100.0
37420;BME280;47344;52.374;4.816;2023-01-31T03:08:30;102227.0;;;7.3;100.0
37420;BME280;47344;52.374;4.816;2023-01-31T03:10:16;102226.0;;;7.31;100.0
37420;BME280;47344;52.374;4.816;2023-01-31T03:13:55;102230.0;;;7.23;100.0
37420;BME280;47344;52.374;4.816;2023-01-31T03:18:05;102227.0;;;7.18;100.0
37420;BME280;47344;52.374;4.816;2023-01-31T03:19:48;102218.0;;;7.15;100.0
37420;BME280;47344;52.374;4.816;2023-01-31T03:21:32;102215.0;;;7.11;100.0
37420;BME280;47344;52.374;4.816;2023-01-31T03:23:15;102211.0;;;7.14;100.0
37420;BME280;47344;52.374;4.816;2023-01-31T03:24:53;102201.0;;;7.15;100.0
37420;BME280;47344;52.374;4.816;2023-01-31T03:28:12;102199.0;;;7.06;100.0
37420;BME280;47344;52.374;4.816;2023-01-31T03:29:52;102192.0;;;7.03;100.0
37420;BME280;47344;52.374;4.816;2023-01-31T03:31:36;102193.0;;;7.07;100.0
37420;BME280;47344;52.374;4.816;2023-01-31T03:33:18;102196.0;;;7.05;100.0
37420;BME280;47344;52.374;4.816;2023-01-31T03:36:39;102200.0;;;7.03;100.0
37420;BME280;47344;52.374;4.816;2023-01-31T03:38:24;102196.0;;;7.05;100.0
37420;BME280;47344;52.374;4.816;2023-01-31T03:40:04;102193.0;;;7.13;100.0
37420;BME280;47344;52.374;4.816;2023-01-31T03:41:52;102197.0;;;7.12;100.0
37420;BME280;47344;52.374;4.816;2023-01-31T03:43:36;102192.0;;;7.01;100.0
37420;BME280;47344;52.374;4.816;2023-01-31T03:47:05;102192.0;;;7.07;100.0
37420;BME280;47344;52.374;4.816;2023-01-31T03:48:48;102190.0;;;7.02;100.0
37420;BME280;47344;52.374;4.816;2023-01-31T03:50:32;102186.0;;;7.0;100.0
37420;BME280;47344;52.374;4.816;2023-01-31T03:52:15;102177.0;;;7.06;100.0
37420;BME280;47344;52.374;4.816;2023-01-31T03:53:57;102171.0;;;7.03;100.0
37420;BME280;47344;52.374;4.816;2023-01-31T03:57:23;102175.0;;;7.04;100.0
37420;BME280;47344;52.374;4.816;2023-01-31T03:59:06;102167.0;;;7.0;100.0
37420;BME280;47344;52.374;4.816;2023-01-31T04:00:43;102171.0;;;7.04;100.0
37420;BME280;47344;52.374;4.816;2023-01-31T04:02:26;102171.0;;;7.13;100.0
37420;BME280;47344;52.374;4.816;2023-01-31T04:05:50;102169.0;;;7.19;100.0
37420;BME280;47344;52.374;4.816;2023-01-31T04:07:26;102160.0;;;7.21;100.0
37420;BME280;47344;52.374;4.816;2023-01-31T04:09:04;102167.0;;;7.19;100.0
37420;BME280;47344;52.374;4.816;2023-01-31T04:10:41;102158.0;;;7.16;100.0
37420;BME280;47344;52.374;4.816;2023-01-31T04:13:55;102161.0;;;7.22;100.0
37420;BME280;47344;52.374;4.816;2023-01-31T04:15:31;102164.0;;;7.15;100.0
37420;BME280;47344;52.374;4.816;2023-01-31T04:17:08;102166.0;;;7.21;100.0
37420;BME280;47344;52.374;4.816;2023-01-31T04:20:20;102163.0;;;7.23;100.0
37420;BME280;47344;52.374;4.816;2023-01-31T04:21:56;102157.0;;;7.28;100.0
37420;BME280;47344;52.374;4.816;2023-01-31T04:23:33;102155.0;;;7.26;100.0
37420;BME280;47344;52.374;4.816;2023-01-31T04:26:46;102167.0;;;7.26;100.0
37420;BME280;47344;52.374;4.816;2023-01-31T04:28:22;102153.0;;;7.32;100.0
37420;BME280;47344;52.374;4.816;2023-01-31T04:29:58;102151.0;;;7.28;100.0
37420;BME280;47344;52.374;4.816;2023-01-31T04:31:34;102151.0;;;7.26;100.0
37420;BME280;47344;52.374;4.816;2023-01-31T04:34:46;102149.0;;;7.25;100.0
37420;BME280;47344;52.374;4.816;2023-01-31T04:36:23;102155.0;;;7.31;100.0
37420;BME280;47344;52.374;4.816;2023-01-31T04:38:00;102160.0;;;7.33;100.0
37420;BME280;47344;52.374;4.816;2023-01-31T04:41:11;102156.0;;;7.33;100.0
37420;BME280;47344;52.374;4.816;2023-01-31T04:42:48;102150.0;;;7.33;100.0
37420;BME280;47344;52.374;4.816;2023-01-31T04:44:25;102145.0;;;7.32;100.0
37420;BME280;47344;52.374;4.816;2023-01-31T04:47:37;102147.0;;;7.35;100.0
37420;BME280;47344;52.374;4.816;2023-01-31T04:49:14;102148.0;;;7.4;100.0
37420;BME280;47344;52.374;4.816;2023-01-31T04:50:51;102152.0;;;7.39;100.0
37420;BME280;47344;52.374;4.816;2023-01-31T04:52:27;102145.0;;;7.42;100.0
37420;BME280;47344;52.374;4.816;2023-01-31T04:55:39;102148.0;;;7.56;100.0
37420;BME280;47344;52.374;4.816;2023-01-31T04:57:15;102141.0;;;7.54;100.0
37420;BME280;47344;52.374;4.816;2023-01-31T04:58:51;102143.0;;;7.54;100.0
37420;BME280;47344;52.374;4.816;2023-01-31T05:02:05;102134.0;;;7.47;100.0
37420;BME280;47344;52.374;4.816;2023-01-31T05:03:42;102139.0;;;7.5;100.0
37420;BME280;47344;52.374;4.816;2023-01-31T05:05:18;102134.0;;;7.45;100.0
37420;BME280;47344;52.374;4.816;2023-01-31T05:08:31;102128.0;;;7.44;100.0
37420;BME280;47344;52.374;4.816;2023-01-31T05:10:09;102126.0;;;7.48;100.0
37420;BME280;47344;52.374;4.816;2023-01-31T05:11:45;102124.0;;;7.47;100.0
37420;BME280;47344;52.374;4.816;2023-01-31T05:13:23;102124.0;;;7.62;100.0
37420;BME280;47344;52.374;4.816;2023-01-31T05:16:37;102125.0;;;7.56;100.0
37420;BME280;47344;52.374;4.816;2023-01-31T05:18:13;102125.0;;;7.59;100.0
37420;BME280;47344;52.374;4.816;2023-01-31T05:19:49;102125.0;;;7.58;100.0
37420;BME280;47344;52.374;4.816;2023-01-31T05:23:01;102131.0;;;7.55;100.0
37420;BME280;47344;52.374;4.816;2023-01-31T05:24:37;102136.0;;;7.6;100.0
37420;BME280;47344;52.374;4.816;2023-01-31T05:26:14;102141.0;;;7.64;100.0
37420;BME280;47344;52.374;4.816;2023-01-31T05:29:29;102137.0;;;7.62;100.0
37420;BME280;47344;52.374;4.816;2023-01-31T05:31:07;102134.0;;;7.6;100.0
37420;BME280;47344;52.374;4.816;2023-01-31T05:32:45;102133.0;;;7.67;100.0
37420;BME280;47344;52.374;4.816;2023-01-31T05:34:22;102142.0;;;7.63;100.0
37420;BME280;47344;52.374;4.816;2023-01-31T05:37:36;102134.0;;;7.62;100.0
37420;BME280;47344;52.374;4.816;2023-01-31T05:39:13;102123.0;;;7.67;100.0
37420;BME280;47344;52.374;4.816;2023-01-31T05:40:49;102118.0;;;7.69;100.0
37420;BME280;47344;52.374;4.816;2023-01-31T05:44:02;102114.0;;;7.69;100.0
37420;BME280;47344;52.374;4.816;2023-01-31T05:45:39;102113.0;;;7.7;100.0
37420;BME280;47344;52.374;4.816;2023-01-31T05:47:16;102113.0;;;7.69;100.0
37420;BME280;47344;52.374;4.816;2023-01-31T05:50:29;102105.0;;;7.66;100.0
37420;BME280;47344;52.374;4.816;2023-01-31T05:52:05;102106.0;;;7.69;100.0
37420;BME280;47344;52.374;4.816;2023-01-31T05:53:42;102102.0;;;7.66;100.0
37420;BME280;47344;52.374;4.816;2023-01-31T05:55:18;102099.0;;;7.64;100.0
37420;BME280;47344;52.374;4.816;2023-01-31T05:58:31;102100.0;;;7.62;100.0
37420;BME280;47344;52.374;4.816;2023-01-31T06:00:08;102096.0;;;7.63;100.0
37420;BME280;47344;52.374;4.816;2023-01-31T06:01:46;102105.0;;;7.64;100.0
37420;BME280;47344;52.374;4.816;2023-01-31T06:04:59;102099.0;;;7.7;100.0
37420;BME280;47344;52.374;4.816;2023-01-31T06:06:35;102101.0;;;7.79;100.0
37420;BME280;47344;52.374;4.816;2023-01-31T06:08:11;102100.0;;;7.69;100.0
37420;BME280;47344;52.374;4.816;2023-01-31T06:11:24;102100.0;;;7.72;100.0
37420;BME280;47344;52.374;4.816;2023-01-31T06:13:00;102095.0;;;7.76;100.0
37420;BME280;47344;52.374;4.816;2023-01-31T06:14:36;102091.0;;;7.71;100.0
37420;BME280;47344;52.374;4.816;2023-01-31T06:16:12;102095.0;;;7.71;100.0
37420;BME280;47344;52.374;4.816;2023-01-31T06:19:25;102093.0;;;7.69;100.0
37420;BME280;47344;52.374;4.816;2023-01-31T06:21:01;102094.0;;;7.69;100.0
37420;BME280;47344;52.374;4.816;2023-01-31T06:22:38;102085.0;;;7.66;100.0
37420;BME280;47344;52.374;4.816;2023-01-31T06:25:53;102092.0;;;7.58;100.0
37420;BME280;47344;52.374;4.816;2023-01-31T06:27:30;102080.0;;;7.6;100.0
37420;BME280;47344;52.374;4.816;2023-01-31T06:29:07;102077.0;;;7.64;100.0
37420;BME280;47344;52.374;4.816;2023-01-31T06:32:21;102076.0;;;7.7;100.0
37420;BME280;47344;52.374;4.816;2023-01-31T06:33:58;102067.0;;;7.72;100.0
37420;BME280;47344;52.374;4.816;2023-01-31T06:35:34;102060.0;;;7.71;100.0
37420;BME280;47344;52.374;4.816;2023-01-31T06:37:11;102058.0;;;7.63;100.0
37420;BME280;47344;52.374;4.816;2023-01-31T06:40:25;102057.0;;;7.69;100.0
37420;BME280;47344;52.374;4.816;2023-01-31T06:42:01;102055.0;;;7.61;100.0
37420;BME280;47344;52.374;4.816;2023-01-31T06:43:39;102051.0;;;7.71;100.0
37420;BME280;47344;52.374;4.816;2023-01-31T06:46:52;102048.0;;;7.68;100.0
37420;BME280;47344;52.374;4.816;2023-01-31T06:48:28;102058.0;;;7.71;100.0
37420;BME280;47344;52.374;4.816;2023-01-31T06:50:05;102048.0;;;7.66;100.0
37420;BME280;47344;52.374;4.816;2023-01-31T06:51:41;102044.0;;;7.57;100.0
37420;BME280;47344;52.374;4.816;2023-01-31T06:54:53;102047.0;;;7.61;100.0
37420;BME280;47344;52.374;4.816;2023-01-31T06:56:29;102050.0;;;7.61;100.0
37420;BME280;47344;52.374;4.816;2023-01-31T06:58:05;102047.0;;;7.5;100.0
37420;BME280;47344;52.374;4.816;2023-01-31T07:01:18;102053.0;;;7.45;100.0
37420;BME280;47344;52.374;4.816;2023-01-31T07:02:55;102060.0;;;7.36;100.0
37420;BME280;47344;52.374;4.816;2023-01-31T07:04:32;102049.0;;;7.28;100.0
37420;BME280;47344;52.374;4.816;2023-01-31T07:07:45;102055.0;;;7.2;100.0
37420;BME280;47344;52.374;4.816;2023-01-31T07:09:22;102047.0;;;7.25;100.0
37420;BME280;47344;52.374;4.816;2023-01-31T07:11:01;102051.0;;;7.26;100.0
37420;BME280;47344;52.374;4.816;2023-01-31T07:12:38;102042.0;;;7.3;100.0
37420;BME280;47344;52.374;4.816;2023-01-31T07:15:51;102040.0;;;7.28;100.0
37420;BME280;47344;52.374;4.816;2023-01-31T07:17:27;102037.0;;;7.32;100.0
37420;BME280;47344;52.374;4.816;2023-01-31T07:19:03;102033.0;;;7.34;100.0
37420;BME280;47344;52.374;4.816;2023-01-31T07:22:16;102032.0;;;7.34;100.0
37420;BME280;47344;52.374;4.816;2023-01-31T07:23:53;102035.0;;;7.44;100.0
37420;BME280;47344;52.374;4.816;2023-01-31T07:25:33;102035.0;;;7.36;100.0
37420;BME280;47344;52.374;4.816;2023-01-31T07:28:48;102045.0;;;7.39;100.0
37420;BME280;47344;52.374;4.816;2023-01-31T07:30:25;102026.0;;;7.38;100.0
37420;BME280;47344;52.374;4.816;2023-01-31T07:32:01;102014.0;;;7.41;100.0
37420;BME280;47344;52.374;4.816;2023-01-31T07:33:38;102023.0;;;7.41;100.0
37420;BME280;47344;52.374;4.816;2023-01-31T07:36:52;102025.0;;;7.47;100.0
37420;BME280;47344;52.374;4.816;2023-01-31T07:38:29;102019.0;;;7.45;100.0
37420;BME280;47344;52.374;4.816;2023-01-31T07:40:07;102015.0;;;7.45;100.0
37420;BME280;47344;52.374;4.816;2023-01-31T07:43:20;102013.0;;;7.43;100.0
37420;BME280;47344;52.374;4.816;2023-01-31T07:44:56;102014.0;;;7.36;100.0
37420;BME280;47344;52.374;4.816;2023-01-31T07:46:32;102003.0;;;7.33;100.0
37420;BME280;47344;52.374;4.816;2023-01-31T07:49:44;102007.0;;;7.36;100.0
37420;BME280;47344;52.374;4.816;2023-01-31T07:51:21;102012.0;;;7.47;100.0
37420;BME280;47344;52.374;4.816;2023-01-31T07:52:57;102010.0;;;7.37;100.0
37420;BME280;47344;52.374;4.816;2023-01-31T07:54:34;102016.0;;;7.4;100.0
37420;BME280;47344;52.374;4.816;2023-01-31T07:57:49;102022.0;;;7.48;100.0
37420;BME280;47344;52.374;4.816;2023-01-31T07:59:25;102010.0;;;7.46;100.0
37420;BME280;47344;52.374;4.816;2023-01-31T08:04:15;102003.0;;;7.6;100.0
37420;BME280;47344;52.374;4.816;2023-01-31T08:05:52;101998.0;;;7.63;100.0
37420;BME280;47344;52.374;4.816;2023-01-31T08:07:28;101999.0;;;7.6;100.0
37420;BME280;47344;52.374;4.816;2023-01-31T08:09:05;101995.0;;;7.62;100.0
37420;BME280;47344;52.374;4.816;2023-01-31T08:12:18;101991.0;;;7.68;100.0
37420;BME280;47344;52.374;4.816;2023-01-31T08:13:54;101985.0;;;7.69;100.0
37420;BME280;47344;52.374;4.816;2023-01-31T08:15:31;101994.0;;;7.57;100.0
37420;BME280;47344;52.374;4.816;2023-01-31T08:18:45;101990.0;;;7.69;100.0
37420;BME280;47344;52.374;4.816;2023-01-31T08:20:22;101991.0;;;7.61;100.0
37420;BME280;47344;52.374;4.816;2023-01-31T08:21:58;101999.0;;;7.62;100.0
37420;BME280;47344;52.374;4.816;2023-01-31T08:25:13;102001.0;;;7.59;100.0
37420;BME280;47344;52.374;4.816;2023-01-31T08:26:49;101997.0;;;7.64;100.0
37420;BME280;47344;52.374;4.816;2023-01-31T08:28:25;101983.0;;;7.71;100.0
37420;BME280;47344;52.374;4.816;2023-01-31T08:30:02;101978.0;;;7.74;100.0
37420;BME280;47344;52.374;4.816;2023-01-31T08:33:16;101978.0;;;7.82;100.0
37420;BME280;47344;52.374;4.816;2023-01-31T08:34:52;101978.0;;;7.73;100.0
37420;BME280;47344;52.374;4.816;2023-01-31T08:36:30;101978.0;;;7.79;100.0
37420;BME280;47344;52.374;4.816;2023-01-31T08:39:43;101978.0;;;7.81;100.0
37420;BME280;47344;52.374;4.816;2023-01-31T08:41:20;101984.0;;;7.78;100.0
37420;BME280;47344;52.374;4.816;2023-01-31T08:43:00;101987.0;;;7.83;100.0
37420;BME280;47344;52.374;4.816;2023-01-31T08:46:13;101985.0;;;7.89;100.0
37420;BME280;47344;52.374;4.816;2023-01-31T08:47:52;101983.0;;;7.92;100.0
37420;BME280;47344;52.374;4.816;2023-01-31T08:49:29;101981.0;;;7.95;100.0
37420;BME280;47344;52.374;4.816;2023-01-31T08:51:07;101968.0;;;8.06;100.0
37420;BME280;47344;52.374;4.816;2023-01-31T08:54:20;101960.0;;;8.06;100.0
37420;BME280;47344;52.374;4.816;2023-01-31T08:55:57;101955.0;;;8.05;100.0
37420;BME280;47344;52.374;4.816;2023-01-31T08:57:34;101953.0;;;8.09;100.0
37420;BME280;47344;52.374;4.816;2023-01-31T09:00:47;101952.0;;;8.11;100.0
37420;BME280;47344;52.374;4.816;2023-01-31T09:02:23;101943.0;;;8.18;100.0
37420;BME280;47344;52.374;4.816;2023-01-31T09:03:59;101938.0;;;8.31;100.0
37420;BME280;47344;52.374;4.816;2023-01-31T09:05:35;101935.0;;;8.18;100.0
37420;BME280;47344;52.374;4.816;2023-01-31T09:08:48;101938.0;;;8.23;100.0
37420;BME280;47344;52.374;4.816;2023-01-31T09:10:24;101940.0;;;8.24;100.0
37420;BME280;47344;52.374;4.816;2023-01-31T09:12:00;101942.0;;;8.2;100.0
37420;BME280;47344;52.374;4.816;2023-01-31T09:15:14;101951.0;;;8.19;100.0
37420;BME280;47344;52.374;4.816;2023-01-31T09:16:51;101955.0;;;8.22;100.0
37420;BME280;47344;52.374;4.816;2023-01-31T09:18:28;101953.0;;;8.23;100.0
37420;BME280;47344;52.374;4.816;2023-01-31T09:21:43;101942.0;;;8.3;100.0
37420;BME280;47344;52.374;4.816;2023-01-31T09:23:20;101940.0;;;8.32;100.0
37420;BME280;47344;52.374;4.816;2023-01-31T09:24:58;101932.0;;;8.4;100.0
37420;BME280;47344;52.374;4.816;2023-01-31T09:26:35;101931.0;;;8.38;100.0
37420;BME280;47344;52.374;4.816;2023-01-31T09:29:47;101915.0;;;8.35;100.0
37420;BME280;47344;52.374;4.816;2023-01-31T09:31:23;101925.0;;;8.47;100.0
37420;BME280;47344;52.374;4.816;2023-01-31T09:33:00;101928.0;;;8.5;100.0
37420;BME280;47344;52.374;4.816;2023-01-31T09:36:14;101924.0;;;8.57;100.0
37420;BME280;47344;52.374;4.816;2023-01-31T09:37:51;101923.0;;;8.64;100.0
37420;BME280;47344;52.374;4.816;2023-01-31T09:39:28;101930.0;;;8.61;100.0
37420;BME280;47344;52.374;4.816;2023-01-31T09:43:01;101938.0;;;8.55;100.0
37420;BME280;47344;52.374;4.816;2023-01-31T09:44:40;101934.0;;;8.44;100.0
37420;BME280;47344;52.374;4.816;2023-01-31T09:46:20;101937.0;;;8.45;100.0
37420;BME280;47344;52.374;4.816;2023-01-31T09:48:00;101937.0;;;8.44;100.0
37420;BME280;47344;52.374;4.816;2023-01-31T09:49:43;101931.0;;;8.53;100.0
37420;BME280;47344;52.374;4.816;2023-01-31T09:53:03;101914.0;;;8.55;100.0
37420;BME280;47344;52.374;4.816;2023-01-31T09:54:39;101937.0;;;8.58;100.0
37420;BME280;47344;52.374;4.816;2023-01-31T09:56:22;101923.0;;;8.47;100.0
37420;BME280;47344;52.374;4.816;2023-01-31T09:58:11;101919.0;;;8.48;100.0
37420;BME280;47344;52.374;4.816;2023-01-31T10:01:49;101930.0;;;8.53;100.0
37420;BME280;47344;52.374;4.816;2023-01-31T10:03:41;101928.0;;;8.55;100.0
37420;BME280;47344;52.374;4.816;2023-01-31T10:05:57;101927.0;;;8.53;100.0
37420;BME280;47344;52.374;4.816;2023-01-31T10:07:44;101927.0;;;8.45;100.0
37420;BME280;47344;52.374;4.816;2023-01-31T10:09:29;101923.0;;;8.44;100.0
37420;BME280;47344;52.374;4.816;2023-01-31T10:11:11;101936.0;;;8.45;100.0
37420;BME280;47344;52.374;4.816;2023-01-31T10:12:54;101933.0;;;8.42;100.0
37420;BME280;47344;52.374;4.816;2023-01-31T10:16:21;101930.0;;;8.45;100.0
37420;BME280;47344;52.374;4.816;2023-01-31T10:18:05;101926.0;;;8.49;100.0
37420;BME280;47344;52.374;4.816;2023-01-31T10:19:50;101920.0;;;8.6;100.0
37420;BME280;47344;52.374;4.816;2023-01-31T10:21:31;101928.0;;;8.59;100.0
37420;BME280;47344;52.374;4.816;2023-01-31T10:23:15;101909.0;;;8.55;100.0
37420;BME280;47344;52.374;4.816;2023-01-31T10:26:57;101924.0;;;8.57;100.0
37420;BME280;47344;52.374;4.816;2023-01-31T10:28:41;101927.0;;;8.67;100.0
37420;BME280;47344;52.374;4.816;2023-01-31T10:30:27;101918.0;;;8.71;100.0
37420;BME280;47344;52.374;4.816;2023-01-31T10:32:14;101920.0;;;8.68;100.0
37420;BME280;47344;52.374;4.816;2023-01-31T10:33:58;101924.0;;;8.69;100.0
37420;BME280;47344;52.374;4.816;2023-01-31T10:35:39;101927.0;;;8.71;100.0
37420;BME280;47344;52.374;4.816;2023-01-31T10:39:16;101937.0;;;8.81;100.0
37420;BME280;47344;52.374;4.816;2023-01-31T10:40:58;101930.0;;;8.85;100.0
37420;BME280;47344;52.374;4.816;2023-01-31T10:42:44;101938.0;;;8.81;100.0
37420;BME280;47344;52.374;4.816;2023-01-31T10:44:30;101939.0;;;8.85;100.0
37420;BME280;47344;52.374;4.816;2023-01-31T10:46:21;101937.0;;;8.86;100.0
37420;BME280;47344;52.374;4.816;2023-01-31T10:49:50;101940.0;;;8.92;100.0
37420;BME280;47344;52.374;4.816;2023-01-31T10:51:38;101943.0;;;8.89;100.0
37420;BME280;47344;52.374;4.816;2023-01-31T10:53:36;101945.0;;;8.92;100.0
37420;BME280;47344;52.374;4.816;2023-01-31T10:55:36;101944.0;;;8.98;100.0
37420;BME280;47344;52.374;4.816;2023-01-31T10:57:31;101958.0;;;8.89;100.0
37420;BME280;47344;52.374;4.816;2023-01-31T10:59:12;101945.0;;;8.89;100.0
37420;BME280;47344;52.374;4.816;2023-01-31T11:00:53;101969.0;;;8.88;100.0
37420;BME280;47344;52.374;4.816;2023-01-31T11:04:21;101939.0;;;8.83;100.0
37420;BME280;47344;52.374;4.816;2023-01-31T11:06:05;101955.0;;;8.86;100.0
37420;BME280;47344;52.374;4.816;2023-01-31T11:07:41;101935.0;;;8.88;100.0
37420;BME280;47344;52.374;4.816;2023-01-31T11:09:17;101937.0;;;8.89;100.0
37420;BME280;47344;52.374;4.816;2023-01-31T11:12:40;101932.0;;;8.94;100.0
37420;BME280;47344;52.374;4.816;2023-01-31T11:14:29;101948.0;;;8.97;100.0
37420;BME280;47344;52.374;4.816;2023-01-31T11:16:07;101931.0;;;8.94;100.0
37420;BME280;47344;52.374;4.816;2023-01-31T11:17:46;101934.0;;;9.06;100.0
37420;BME280;47344;52.374;4.816;2023-01-31T11:21:09;101924.0;;;9.02;100.0
37420;BME280;47344;52.374;4.816;2023-01-31T11:22:54;101924.0;;;9.13;100.0
37420;BME280;47344;52.374;4.816;2023-01-31T11:24:33;101926.0;;;9.18;100.0